Cooperville, Idaho
Current Conditions -  °F | °C
As of 3:15 AM on Thursday 23 Oct 2014 (Local Time) from KGIC Reporting Station
Overcast Overcast  
Wind Chill: 56°   Ceiling: 7000
Heat Index: 56°   Visibility: 10mi
Dew Point: 38°   Wind: 18mph
Humidity: 52%   Direction: 190°S
Pressure: 29.91"   Gusts: 25mph
Location:  45.7487°N, 116.14°W
Report Text: KGIC 231015Z AUTO 19016G22KT 10SM BKN070 OVC100 13/04 A2991 RMK AO1 T01330035
Loading
Personal Weather Stations






























Interactive Weather Map
Tropical Storm Tracking
New forecast layout! Learn more

10-Day Weather Forecast

Advertisements
Track Severe Weather on mobile